createdAt,value
2023-04-20T00:01:24.889Z,7.41
2023-04-20T00:03:52.493Z,7.34
2023-04-20T00:06:21.836Z,7.28
2023-04-20T00:08:48.935Z,7.24
2023-04-20T00:11:16.036Z,7.24
2023-04-20T00:13:43.138Z,7.21
2023-04-20T00:16:10.023Z,7.09
2023-04-20T00:18:36.734Z,7.08
2023-04-20T00:21:03.625Z,7.05
2023-04-20T00:23:30.512Z,7.01
2023-04-20T00:25:57.296Z,7.01
2023-04-20T00:28:24.109Z,6.99
2023-04-20T00:30:51.150Z,7.01
2023-04-20T00:33:17.904Z,6.99
2023-04-20T00:35:44.686Z,6.96
2023-04-20T00:38:11.471Z,6.86
2023-04-20T00:40:38.314Z,6.89
2023-04-20T00:43:12.384Z,6.83
2023-04-20T00:45:39.220Z,6.74
2023-04-20T00:48:07.242Z,6.80
2023-04-20T00:50:35.113Z,6.73
2023-04-20T00:53:03.297Z,6.75
2023-04-20T00:55:31.296Z,6.77
2023-04-20T00:57:59.075Z,6.74
2023-04-20T01:00:26.626Z,6.68
2023-04-20T01:02:53.552Z,6.76
2023-04-20T01:05:21.863Z,6.79
2023-04-20T01:07:49.689Z,6.80
2023-04-20T01:10:16.405Z,6.84
2023-04-20T01:12:43.147Z,6.85
2023-04-20T01:15:10.926Z,6.83
2023-04-20T01:17:39.788Z,6.78
2023-04-20T01:20:09.489Z,6.84
2023-04-20T01:22:50.926Z,6.86
2023-04-20T01:25:18.534Z,6.83
2023-04-20T01:27:46.185Z,6.75
2023-04-20T01:30:13.333Z,6.80
2023-04-20T01:32:40.597Z,6.83
2023-04-20T01:35:09.169Z,6.88
2023-04-20T01:37:38.118Z,6.91
2023-04-20T01:40:06.482Z,6.95
2023-04-20T01:42:33.209Z,6.97
2023-04-20T01:44:59.975Z,7.08
2023-04-20T01:47:26.869Z,7.03
2023-04-20T01:49:53.663Z,7.17
2023-04-20T01:52:20.446Z,7.22
2023-04-20T01:54:48.600Z,7.28
2023-04-20T01:57:15.577Z,7.35
2023-04-20T01:59:42.860Z,7.41
2023-04-20T02:02:09.714Z,7.50
2023-04-20T02:04:36.770Z,7.55
2023-04-20T02:07:03.450Z,7.58
2023-04-20T02:09:30.258Z,7.61
2023-04-20T02:11:57.083Z,7.68
2023-04-20T02:14:23.926Z,7.69
2023-04-20T02:16:53.306Z,7.73
2023-04-20T02:19:20.149Z,7.75
2023-04-20T02:21:47.176Z,7.68
2023-04-20T02:24:13.886Z,7.64
2023-04-20T02:26:40.676Z,7.77
2023-04-20T02:29:07.540Z,7.74
2023-04-20T02:31:34.435Z,7.73
2023-04-20T02:34:01.336Z,7.67
2023-04-20T02:36:28.309Z,7.59
2023-04-20T02:38:55.094Z,7.55
2023-04-20T02:41:21.819Z,7.50
2023-04-20T02:43:48.580Z,7.50
2023-04-20T02:46:15.402Z,7.40
2023-04-20T02:48:42.464Z,7.45
2023-04-20T02:51:09.561Z,7.45
2023-04-20T02:53:41.674Z,7.48
2023-04-20T02:56:27.446Z,7.46
2023-04-20T02:58:58.844Z,7.44
2023-04-20T03:01:48.632Z,7.40
2023-04-20T03:04:19.596Z,7.41
2023-04-20T03:06:54.576Z,7.33
2023-04-20T03:09:27.257Z,7.39
2023-04-20T03:11:59.132Z,7.38
2023-04-20T03:14:43.519Z,7.39
2023-04-20T03:17:10.304Z,7.37
2023-04-20T03:19:37.120Z,7.33
2023-04-20T03:22:04.787Z,7.35
2023-04-20T03:24:32.524Z,7.34
2023-04-20T03:27:03.365Z,7.34
2023-04-20T03:29:41.549Z,7.32
2023-04-20T03:32:09.283Z,7.24
2023-04-20T03:34:36.156Z,7.24
2023-04-20T03:37:03.018Z,7.30
2023-04-20T03:39:29.822Z,7.31
2023-04-20T03:41:57.535Z,7.30
2023-04-20T03:44:25.408Z,7.29
2023-04-20T03:46:52.131Z,7.35
2023-04-20T03:49:25.168Z,7.36
2023-04-20T03:51:54.826Z,7.36
2023-04-20T03:54:22.835Z,7.35
2023-04-20T03:56:49.825Z,7.41
2023-04-20T03:59:17.682Z,7.49
2023-04-20T04:01:47.325Z,7.48
2023-04-20T04:04:14.462Z,7.45
2023-04-20T04:06:41.490Z,7.41
2023-04-20T04:09:09.065Z,7.38
2023-04-20T04:11:36.075Z,7.39
2023-04-20T04:14:05.198Z,7.36
2023-04-20T04:16:32.881Z,7.33
2023-04-20T04:18:59.862Z,7.26
2023-04-20T04:21:28.401Z,7.26
2023-04-20T04:24:00.847Z,7.16
2023-04-20T04:26:50.334Z,7.21
2023-04-20T04:29:19.444Z,7.19
2023-04-20T04:31:46.771Z,7.18
2023-04-20T04:34:18.495Z,7.11
2023-04-20T04:36:50.369Z,7.17
2023-04-20T04:39:22.494Z,7.17
2023-04-20T04:41:58.158Z,7.20
2023-04-20T04:44:33.231Z,7.17
2023-04-20T04:47:02.951Z,7.21
2023-04-20T04:49:30.894Z,7.29
2023-04-20T04:51:57.626Z,7.31
2023-04-20T04:54:24.369Z,7.43
2023-04-20T04:56:51.715Z,7.45
2023-04-20T04:59:18.631Z,7.50
2023-04-20T05:01:45.624Z,7.58
2023-04-20T05:04:12.468Z,7.65
2023-04-20T05:06:39.306Z,7.65
2023-04-20T05:09:06.049Z,7.82
2023-04-20T05:11:32.885Z,7.89
2023-04-20T05:14:00.684Z,7.99
2023-04-20T05:16:27.493Z,8.08
2023-04-20T05:18:54.232Z,8.12
2023-04-20T05:21:21.064Z,8.18
2023-04-20T05:23:47.820Z,8.19
2023-04-20T05:26:14.577Z,8.26
2023-04-20T05:28:41.339Z,8.27
2023-04-20T05:31:08.188Z,8.36
2023-04-20T05:33:34.870Z,8.40
2023-04-20T05:36:01.709Z,8.40
2023-04-20T05:38:28.501Z,8.47
2023-04-20T05:40:56.127Z,8.54
2023-04-20T05:43:22.919Z,8.54
2023-04-20T05:45:49.742Z,8.74
2023-04-20T05:48:16.497Z,8.73
2023-04-20T05:50:43.242Z,8.76
2023-04-20T05:53:09.975Z,8.85
2023-04-20T05:55:36.672Z,8.91
2023-04-20T05:58:03.700Z,9.01
2023-04-20T06:00:30.468Z,9.05
2023-04-20T06:02:57.491Z,9.12
2023-04-20T06:05:24.487Z,9.26
2023-04-20T06:07:51.371Z,9.32
2023-04-20T06:10:18.093Z,9.31
2023-04-20T06:12:44.996Z,9.33
2023-04-20T06:15:11.929Z,9.34
2023-04-20T06:17:40.665Z,9.37
2023-04-20T06:20:09.847Z,9.41
2023-04-20T06:22:37.386Z,9.43
2023-04-20T06:25:04.712Z,9.54
2023-04-20T06:27:31.462Z,9.51
2023-04-20T06:29:58.332Z,9.54
2023-04-20T06:32:25.149Z,9.62
2023-04-20T06:34:52.641Z,9.52
2023-04-20T06:37:19.636Z,9.62
2023-04-20T06:39:46.388Z,9.73
2023-04-20T06:42:18.441Z,9.72
2023-04-20T06:44:56.450Z,9.75
2023-04-20T06:47:23.312Z,9.65
2023-04-20T06:49:58.293Z,9.79
2023-04-20T06:52:25.263Z,9.84
2023-04-20T06:54:52.107Z,9.83
2023-04-20T06:57:18.852Z,9.96
2023-04-20T06:59:45.635Z,9.98
2023-04-20T07:02:12.864Z,9.97
2023-04-20T07:04:39.732Z,9.99
2023-04-20T07:07:06.561Z,10.07
2023-04-20T07:09:33.265Z,10.13
2023-04-20T07:12:00.987Z,9.92
2023-04-20T07:14:28.233Z,9.92
2023-04-20T07:16:55.359Z,10.00
2023-04-20T07:19:22.208Z,9.97
2023-04-20T07:21:48.956Z,9.91
2023-04-20T07:24:15.732Z,10.01
2023-04-20T07:27:01.286Z,10.03
2023-04-20T07:29:28.029Z,10.16
2023-04-20T07:31:55.292Z,10.33
2023-04-20T07:34:22.150Z,10.37
2023-04-20T07:36:48.815Z,10.40
2023-04-20T07:39:16.390Z,10.48
2023-04-20T07:41:43.853Z,10.37
2023-04-20T07:44:11.536Z,10.39
2023-04-20T07:46:38.525Z,10.48
2023-04-20T07:49:05.340Z,10.33
2023-04-20T07:51:33.403Z,10.26
2023-04-20T07:54:00.491Z,10.30
2023-04-20T07:56:27.274Z,10.31
2023-04-20T07:58:53.936Z,10.40
2023-04-20T08:01:25.478Z,10.43
2023-04-20T08:03:55.110Z,10.35
2023-04-20T08:06:22.275Z,10.47
2023-04-20T08:08:49.051Z,10.55
2023-04-20T08:11:16.038Z,10.52
2023-04-20T08:13:42.709Z,10.49
2023-04-20T08:16:09.545Z,10.68
2023-04-20T08:18:36.338Z,10.78
2023-04-20T08:21:03.136Z,10.76
2023-04-20T08:23:29.963Z,10.68
2023-04-20T08:25:57.326Z,10.84
2023-04-20T08:28:33.241Z,10.94
2023-04-20T08:31:01.231Z,10.96
2023-04-20T08:33:27.973Z,10.96
2023-04-20T08:35:55.030Z,11.03
2023-04-20T08:38:32.950Z,10.98
2023-04-20T08:41:00.829Z,10.89
2023-04-20T08:43:27.507Z,10.94
2023-04-20T08:45:58.763Z,10.95
2023-04-20T08:48:29.667Z,11.08
2023-04-20T08:50:57.062Z,11.06
2023-04-20T08:53:23.823Z,11.01
2023-04-20T08:55:50.850Z,11.00
2023-04-20T08:58:18.212Z,11.10
2023-04-20T09:00:51.189Z,11.23
2023-04-20T09:03:18.232Z,11.29
2023-04-20T09:05:45.132Z,11.24
2023-04-20T09:08:11.871Z,11.33
2023-04-20T09:10:43.941Z,11.35
2023-04-20T09:13:22.768Z,11.43
2023-04-20T09:15:49.844Z,11.41
2023-04-20T09:18:17.573Z,11.49
2023-04-20T09:20:44.715Z,11.48
2023-04-20T09:23:16.791Z,11.50
2023-04-20T09:25:46.426Z,11.54
2023-04-20T09:28:13.992Z,11.61
2023-04-20T09:30:49.384Z,11.70
2023-04-20T09:33:16.306Z,11.76
2023-04-20T09:35:44.449Z,11.86
2023-04-20T09:38:15.160Z,11.78
2023-04-20T09:40:42.175Z,11.83
2023-04-20T09:43:19.428Z,11.82
2023-04-20T09:45:46.368Z,11.90
2023-04-20T09:48:19.085Z,11.96
2023-04-20T09:50:50.094Z,11.92
2023-04-20T09:53:19.866Z,12.04
2023-04-20T09:55:48.524Z,12.11
2023-04-20T09:58:20.601Z,12.11
2023-04-20T10:00:47.861Z,12.17
2023-04-20T10:03:21.910Z,12.18
2023-04-20T10:05:50.150Z,12.25
2023-04-20T10:08:17.961Z,12.20
2023-04-20T10:10:49.099Z,12.16
2023-04-20T10:13:19.520Z,12.28
2023-04-20T10:15:46.670Z,12.29
2023-04-20T10:18:23.994Z,12.33
2023-04-20T10:20:52.235Z,12.06
2023-04-20T10:23:20.026Z,12.17
2023-04-20T10:25:58.239Z,12.25
2023-04-20T10:28:25.324Z,12.32
2023-04-20T10:30:53.197Z,12.40
2023-04-20T10:33:20.172Z,12.49
2023-04-20T10:35:50.752Z,12.56
2023-04-20T10:38:31.129Z,12.59
2023-04-20T10:41:12.378Z,12.69
2023-04-20T10:43:43.289Z,12.74
2023-04-20T10:46:28.819Z,12.71
2023-04-20T10:48:57.684Z,12.83
2023-04-20T10:51:25.443Z,12.82
2023-04-20T10:54:05.261Z,12.86
2023-04-20T10:56:42.723Z,12.95
2023-04-20T10:59:11.629Z,12.99
2023-04-20T11:01:39.273Z,13.04
2023-04-20T11:04:07.286Z,13.12
2023-04-20T11:06:34.828Z,13.19
2023-04-20T11:09:01.809Z,13.30
2023-04-20T11:11:29.114Z,13.37
2023-04-20T11:14:10.464Z,13.50
2023-04-20T11:16:49.645Z,13.54
2023-04-20T11:19:33.033Z,13.75
2023-04-20T11:22:00.656Z,13.76
2023-04-20T11:24:29.579Z,13.88
2023-04-20T11:26:58.220Z,13.98
2023-04-20T11:29:29.143Z,14.05
2023-04-20T11:31:56.737Z,14.13
2023-04-20T11:34:24.153Z,14.24
2023-04-20T11:36:50.979Z,14.32
2023-04-20T11:39:28.538Z,14.35
2023-04-20T11:41:57.334Z,14.49
2023-04-20T11:44:26.022Z,14.57
2023-04-20T11:46:54.432Z,14.76
2023-04-20T11:49:21.420Z,14.88
2023-04-20T11:51:48.350Z,15.15
2023-04-20T11:54:15.494Z,15.25
2023-04-20T11:56:42.768Z,15.41
2023-04-20T11:59:09.521Z,15.38
2023-04-20T12:01:36.657Z,15.59
2023-04-20T12:04:04.372Z,15.36
2023-04-20T12:06:34.382Z,15.24
2023-04-20T12:09:01.118Z,15.01
2023-04-20T12:11:27.827Z,14.78
2023-04-20T12:13:54.617Z,14.68
2023-04-20T12:16:21.792Z,14.48
2023-04-20T12:18:48.546Z,14.40
2023-04-20T12:21:15.577Z,14.45
2023-04-20T12:23:44.019Z,14.31
2023-04-20T12:26:10.795Z,14.22
2023-04-20T12:28:37.582Z,14.12
2023-04-20T12:31:04.525Z,14.09
2023-04-20T12:33:31.477Z,13.96
2023-04-20T12:35:58.166Z,14.00
2023-04-20T12:38:25.054Z,14.04
2023-04-20T12:40:52.049Z,14.04
2023-04-20T12:43:18.834Z,13.95
2023-04-20T12:45:46.013Z,13.97
2023-04-20T12:48:12.773Z,13.96
2023-04-20T12:50:39.877Z,13.98
2023-04-20T12:53:06.714Z,14.01
2023-04-20T12:55:33.499Z,14.06
2023-04-20T12:58:00.222Z,14.13
2023-04-20T13:00:26.923Z,14.15
2023-04-20T13:02:53.794Z,14.16
2023-04-20T13:05:20.812Z,14.18
2023-04-20T13:07:47.542Z,14.20
2023-04-20T13:10:14.281Z,14.18
2023-04-20T13:12:41.662Z,14.11
2023-04-20T13:15:09.376Z,14.19
2023-04-20T13:17:36.519Z,14.25
2023-04-20T13:20:05.060Z,14.30
2023-04-20T13:22:32.144Z,14.51
2023-04-20T13:24:58.844Z,14.72
2023-04-20T13:27:25.492Z,14.76
2023-04-20T13:29:52.282Z,14.72
2023-04-20T13:32:19.145Z,14.59
2023-04-20T13:34:46.419Z,14.64
2023-04-20T13:37:13.827Z,14.55
2023-04-20T13:39:40.966Z,14.46
2023-04-20T13:42:07.765Z,14.47
2023-04-20T13:44:35.476Z,14.54
2023-04-20T13:47:02.709Z,14.48
2023-04-20T13:49:29.535Z,14.48
2023-04-20T13:51:56.348Z,14.46
2023-04-20T13:54:23.183Z,14.57
2023-04-20T13:56:50.048Z,14.69
2023-04-20T13:59:16.835Z,14.71
2023-04-20T14:01:43.752Z,14.90
2023-04-20T14:04:10.734Z,14.86
2023-04-20T14:06:38.123Z,14.81
2023-04-20T14:09:04.895Z,14.77
2023-04-20T14:11:31.595Z,14.75
2023-04-20T14:13:58.292Z,14.65
2023-04-20T14:16:25.716Z,14.58
2023-04-20T14:18:52.741Z,14.53
2023-04-20T14:21:19.542Z,14.48
2023-04-20T14:23:46.390Z,14.45
2023-04-20T14:26:13.431Z,14.44
2023-04-20T14:28:40.165Z,14.35
2023-04-20T14:31:06.830Z,14.28
2023-04-20T14:33:33.574Z,14.29
2023-04-20T14:36:00.338Z,14.28
2023-04-20T14:38:27.106Z,14.28
2023-04-20T14:40:53.920Z,14.29
2023-04-20T14:43:20.612Z,14.29
2023-04-20T14:45:47.704Z,14.24
2023-04-20T14:48:14.453Z,14.22
2023-04-20T14:50:41.273Z,14.30
2023-04-20T14:53:08.125Z,14.35
2023-04-20T14:55:34.926Z,14.25
2023-04-20T14:58:01.681Z,14.32
2023-04-20T15:00:28.505Z,14.32
2023-04-20T15:02:59.662Z,14.33
2023-04-20T15:05:27.747Z,14.30
2023-04-20T15:07:54.589Z,14.31
2023-04-20T15:10:21.914Z,14.38
2023-04-20T15:12:48.888Z,14.31
2023-04-20T15:15:16.651Z,14.25
2023-04-20T15:17:44.722Z,14.18
2023-04-20T15:20:12.393Z,14.12
2023-04-20T15:22:39.189Z,14.18
2023-04-20T15:25:06.470Z,14.13
2023-04-20T15:27:35.097Z,14.18
2023-04-20T15:30:02.750Z,14.18
2023-04-20T15:32:35.749Z,14.23
2023-04-20T15:35:02.990Z,14.24
2023-04-20T15:37:29.815Z,14.20
2023-04-20T15:39:56.717Z,14.06
2023-04-20T15:42:23.509Z,14.11
2023-04-20T15:44:50.375Z,14.09
2023-04-20T15:47:17.121Z,14.09
2023-04-20T15:49:44.094Z,14.04
2023-04-20T15:52:10.838Z,14.09
2023-04-20T15:54:38.032Z,14.14
2023-04-20T15:57:04.733Z,14.22
2023-04-20T15:59:31.538Z,14.13
2023-04-20T16:01:58.442Z,14.01
2023-04-20T16:04:25.631Z,13.93
2023-04-20T16:06:52.549Z,13.95
2023-04-20T16:09:19.934Z,13.91
2023-04-20T16:11:47.490Z,13.83
2023-04-20T16:14:14.186Z,13.84
2023-04-20T16:16:40.994Z,13.84
2023-04-20T16:19:08.049Z,13.83
2023-04-20T16:21:34.878Z,13.80
2023-04-20T16:24:01.644Z,13.71
2023-04-20T16:26:28.403Z,13.61
2023-04-20T16:28:55.149Z,13.65
2023-04-20T16:31:21.982Z,13.64
2023-04-20T16:33:49.047Z,13.62
2023-04-20T16:36:16.576Z,13.57
2023-04-20T16:38:43.717Z,13.50
2023-04-20T16:41:10.689Z,13.54
2023-04-20T16:43:37.473Z,13.62
2023-04-20T16:46:04.274Z,13.59
2023-04-20T16:48:31.824Z,13.53
2023-04-20T16:50:58.609Z,13.52
2023-04-20T16:53:25.975Z,13.46
2023-04-20T16:55:52.686Z,13.38
2023-04-20T16:58:19.453Z,13.32
2023-04-20T17:00:46.466Z,13.25
2023-04-20T17:03:13.946Z,13.20
2023-04-20T17:05:42.229Z,13.14
2023-04-20T17:08:09.773Z,13.10
2023-04-20T17:10:39.505Z,12.98
2023-04-20T17:13:06.265Z,12.93
2023-04-20T17:15:33.043Z,12.88
2023-04-20T17:17:59.881Z,12.90
2023-04-20T17:20:26.669Z,12.87
2023-04-20T17:22:53.404Z,12.86
2023-04-20T17:25:20.399Z,12.79
2023-04-20T17:27:47.190Z,12.69
2023-04-20T17:30:14.358Z,12.72
2023-04-20T17:32:41.935Z,12.67
2023-04-20T17:35:08.925Z,12.62
2023-04-20T17:37:36.630Z,12.56
2023-04-20T17:40:06.295Z,12.51
2023-04-20T17:42:33.150Z,12.50
2023-04-20T17:45:00.277Z,12.45
2023-04-20T17:47:28.575Z,12.43
2023-04-20T17:49:56.208Z,12.37
2023-04-20T17:52:23.038Z,12.34
2023-04-20T17:54:49.831Z,12.28
2023-04-20T17:57:16.610Z,12.21
2023-04-20T17:59:43.412Z,12.14
2023-04-20T18:02:11.842Z,12.08
2023-04-20T18:04:39.182Z,11.95
2023-04-20T18:07:06.236Z,11.97
2023-04-20T18:09:32.926Z,11.87
2023-04-20T18:11:59.628Z,11.83
2023-04-20T18:14:26.405Z,11.80
2023-04-20T18:16:55.187Z,11.76
2023-04-20T18:19:22.709Z,11.73
2023-04-20T18:21:49.545Z,11.69
2023-04-20T18:24:16.551Z,11.58
2023-04-20T18:26:43.313Z,11.54
2023-04-20T18:29:10.082Z,11.47
2023-04-20T18:31:37.527Z,11.39
2023-04-20T18:34:05.098Z,11.33
2023-04-20T18:36:32.235Z,11.24
2023-04-20T18:38:58.937Z,11.18
2023-04-20T18:41:27.434Z,11.13
2023-04-20T18:43:55.629Z,11.07
2023-04-20T18:46:22.946Z,11.03
2023-04-20T18:48:49.748Z,10.96
2023-04-20T18:51:16.463Z,10.89
2023-04-20T18:53:43.168Z,10.81
2023-04-20T18:56:10.406Z,10.75
2023-04-20T18:58:37.157Z,10.57
2023-04-20T19:01:04.395Z,10.59
2023-04-20T19:03:32.022Z,10.51
2023-04-20T19:05:59.352Z,10.44
2023-04-20T19:08:26.162Z,10.34
2023-04-20T19:10:56.549Z,10.28
2023-04-20T19:13:23.893Z,10.21
2023-04-20T19:15:55.133Z,10.14
2023-04-20T19:18:21.997Z,10.07
2023-04-20T19:20:48.720Z,10.02
2023-04-20T19:23:15.644Z,9.98
2023-04-20T19:25:42.354Z,9.91
2023-04-20T19:28:10.411Z,9.88
2023-04-20T19:30:37.073Z,9.88
2023-04-20T19:33:05.176Z,9.86
2023-04-20T19:35:32.372Z,9.77
2023-04-20T19:37:59.567Z,9.77
2023-04-20T19:40:27.090Z,9.76
2023-04-20T19:42:53.846Z,9.63
2023-04-20T19:45:20.643Z,9.70
2023-04-20T19:47:47.454Z,9.65
2023-04-20T19:50:14.382Z,9.61
2023-04-20T19:52:41.296Z,9.56
2023-04-20T19:55:08.487Z,9.54
2023-04-20T19:57:35.350Z,9.50
2023-04-20T20:00:02.064Z,9.48
2023-04-20T20:02:39.845Z,9.45
2023-04-20T20:05:07.692Z,9.41
2023-04-20T20:07:34.662Z,9.41
2023-04-20T20:10:02.203Z,9.36
2023-04-20T20:12:28.963Z,9.29
2023-04-20T20:14:55.803Z,9.25
2023-04-20T20:17:22.925Z,9.10
2023-04-20T20:19:50.047Z,9.16
2023-04-20T20:22:16.884Z,9.13
2023-04-20T20:24:47.315Z,9.16
2023-04-20T20:27:14.156Z,9.18
2023-04-20T20:29:40.973Z,9.18
2023-04-20T20:32:08.026Z,9.22
2023-04-20T20:34:35.284Z,9.21
2023-04-20T20:37:04.404Z,9.17
2023-04-20T20:39:32.486Z,9.18
2023-04-20T20:41:59.742Z,9.15
2023-04-20T20:44:29.088Z,9.13
2023-04-20T20:46:55.909Z,9.12
2023-04-20T20:49:22.743Z,9.07
2023-04-20T20:51:49.550Z,9.04
2023-04-20T20:54:16.567Z,8.99
2023-04-20T20:56:43.653Z,8.94
2023-04-20T20:59:10.532Z,8.90
2023-04-20T21:01:37.223Z,8.88
2023-04-20T21:04:04.903Z,8.84
2023-04-20T21:06:33.722Z,8.69
2023-04-20T21:09:01.030Z,8.77
2023-04-20T21:11:27.814Z,8.75
2023-04-20T21:13:56.397Z,8.67
2023-04-20T21:16:23.555Z,8.68
2023-04-20T21:18:50.578Z,8.74
2023-04-20T21:21:17.540Z,8.75
2023-04-20T21:23:44.352Z,8.74
2023-04-20T21:26:11.163Z,8.72
2023-04-20T21:28:37.860Z,8.67
2023-04-20T21:31:04.696Z,8.65
2023-04-20T21:33:33.767Z,8.55
2023-04-20T21:36:00.604Z,8.57
2023-04-20T21:38:27.363Z,8.52
2023-04-20T21:40:54.057Z,8.50
2023-04-20T21:43:20.737Z,8.47
2023-04-20T21:45:47.486Z,8.46
2023-04-20T21:48:14.237Z,8.44
2023-04-20T21:50:41.215Z,8.39
2023-04-20T21:53:07.889Z,8.42
2023-04-20T21:55:34.675Z,8.43
2023-04-20T21:58:01.378Z,8.41
2023-04-20T22:00:28.160Z,8.42
2023-04-20T22:02:54.996Z,8.40
2023-04-20T22:05:21.961Z,8.41
2023-04-20T22:07:48.692Z,8.37
2023-04-20T22:10:15.530Z,8.39
2023-04-20T22:12:42.504Z,8.37
2023-04-20T22:15:11.530Z,8.37
2023-04-20T22:17:38.423Z,8.34
2023-04-20T22:20:08.040Z,8.31
2023-04-20T22:22:38.843Z,8.29
2023-04-20T22:25:07.546Z,8.26
2023-04-20T22:27:35.060Z,8.30
2023-04-20T22:30:02.156Z,8.23
2023-04-20T22:32:29.214Z,8.26
2023-04-20T22:34:55.987Z,8.22
2023-04-20T22:37:22.733Z,8.24
2023-04-20T22:39:49.415Z,8.18
2023-04-20T22:42:16.131Z,8.22
2023-04-20T22:44:42.821Z,8.18
2023-04-20T22:47:09.852Z,8.18
2023-04-20T22:49:37.546Z,8.14
2023-04-20T22:52:04.472Z,8.12
2023-04-20T22:54:31.232Z,8.10
2023-04-20T22:56:58.815Z,8.13
2023-04-20T22:59:25.937Z,8.13
2023-04-20T23:01:52.671Z,8.15
2023-04-20T23:04:19.526Z,8.13
2023-04-20T23:06:47.361Z,8.15
2023-04-20T23:09:17.291Z,8.11
2023-04-20T23:11:47.375Z,8.11
2023-04-20T23:14:14.266Z,8.16
2023-04-20T23:16:41.278Z,8.12
2023-04-20T23:19:08.300Z,8.09
2023-04-20T23:21:35.104Z,8.04
2023-04-20T23:24:01.835Z,7.97
2023-04-20T23:26:28.501Z,7.99
2023-04-20T23:28:55.621Z,7.97
2023-04-20T23:31:22.611Z,7.95
2023-04-20T23:33:49.858Z,7.94
2023-04-20T23:36:16.792Z,7.93
2023-04-20T23:38:43.911Z,7.93
2023-04-20T23:41:14.418Z,7.92
2023-04-20T23:43:41.514Z,7.93
2023-04-20T23:46:08.849Z,7.92
2023-04-20T23:48:35.926Z,7.92
2023-04-20T23:51:02.942Z,7.86
2023-04-20T23:53:29.771Z,7.93
2023-04-20T23:55:56.628Z,7.95
2023-04-20T23:58:24.772Z,7.99
